Time;durP1;ratioP1;P1;durP2;ratioP2;P2;SDS_P1;SDS_P2;PMS_P1;PMS_P2;Temp;Humidity;BMP_temperature;BMP_pressure;BME280_temperature;BME280_humidity;BME280_pressure;Samples;Min_cycle;Max_cycle;Signal;HPM_P1;HPM_P2
2022/07/23 00:00:12;;;;;;;18.05;12.27;;;;;;;17.81;59.68;98744.25;4975039;28;20049;-81
2022/07/23 00:02:38;;;;;;;9.40;8.30;;;;;;;17.82;59.77;98756.72;4973528;28;20500;-81
2022/07/23 00:05:04;;;;;;;9.05;6.53;;;;;;;17.76;59.76;98752.06;4973260;28;20054;-81
2022/07/23 00:07:29;;;;;;;14.02;6.68;;;;;;;17.67;60.24;98754.78;4989634;28;20050;-82
2022/07/23 00:09:55;;;;;;;8.45;6.45;;;;;;;17.65;60.24;98756.84;4941085;28;20045;-82
2022/07/23 00:12:21;;;;;;;9.05;5.95;;;;;;;17.53;60.70;98744.81;4973658;28;20426;-82
2022/07/23 00:14:47;;;;;;;9.20;5.32;;;;;;;17.63;60.33;98758.88;4973221;28;20050;-82
2022/07/23 00:17:13;;;;;;;5.93;4.82;;;;;;;17.52;60.62;98751.22;4973200;28;20050;-82
2022/07/23 00:19:39;;;;;;;7.38;5.38;;;;;;;17.46;61.65;98757.34;4973237;28;20049;-81
2022/07/23 00:22:05;;;;;;;9.77;6.82;;;;;;;17.44;62.04;98752.13;4974469;28;20058;-81
2022/07/23 00:24:30;;;;;;;7.75;7.13;;;;;;;17.33;62.36;98751.69;4957031;28;20177;-81
2022/07/23 00:26:56;;;;;;;8.75;5.15;;;;;;;17.40;62.05;98758.06;4973105;28;20094;-81
2022/07/23 00:29:22;;;;;;;11.90;4.82;;;;;;;17.39;62.26;98761.81;4972789;28;20058;-82
2022/07/23 00:31:48;;;;;;;9.00;4.68;;;;;;;17.38;62.24;98765.53;4989599;28;20046;-81
2022/07/23 00:34:14;;;;;;;12.50;4.00;;;;;;;17.37;62.70;98767.38;4973004;28;20049;-79
2022/07/23 00:36:41;;;;;;;8.75;4.82;;;;;;;17.40;62.08;98768.88;4989022;28;20050;-81
2022/07/23 00:39:07;;;;;;;7.30;4.25;;;;;;;17.40;62.22;98764.31;4989297;28;20490;-82
2022/07/23 00:41:32;;;;;;;12.18;6.45;;;;;;;17.46;62.37;98773.56;4972841;28;20137;-82
2022/07/23 00:44:19;;;;;;;7.85;6.85;;;;;;;17.53;62.14;98773.69;4974157;28;20122;-81
2022/07/23 00:46:48;;;;;;;14.43;7.43;;;;;;;17.52;62.15;98769.28;4989095;28;20043;-81
2022/07/23 00:49:14;;;;;;;18.63;11.07;;;;;;;17.55;61.99;98777.88;4989043;28;20057;-81
2022/07/23 00:51:41;;;;;;;19.83;17.15;;;;;;;17.50;62.55;98777.59;4972782;28;20043;-81
2022/07/23 00:54:07;;;;;;;25.65;17.55;;;;;;;17.42;61.94;98777.66;4972833;28;20043;-81
2022/07/23 00:56:33;;;;;;;23.42;20.67;;;;;;;17.28;62.83;98775.72;4972755;28;20184;-81
2022/07/23 00:59:01;;;;;;;21.25;19.08;;;;;;;17.07;63.23;98774.50;4988931;28;20129;-82
2022/07/23 01:01:27;;;;;;;21.67;19.65;;;;;;;17.18;63.23;98787.59;4973920;28;20054;-81
2022/07/23 01:03:52;;;;;;;25.25;19.90;;;;;;;17.15;63.23;98760.09;4988979;28;20470;-82
2022/07/23 01:06:18;;;;;;;21.60;19.38;;;;;;;17.30;62.95;98790.75;4988884;28;20046;-82
2022/07/23 01:08:45;;;;;;;21.00;18.67;;;;;;;17.35;62.51;98790.19;4972684;28;20130;-82
2022/07/23 01:11:12;;;;;;;21.88;17.15;;;;;;;17.37;62.49;98790.84;4988965;28;20134;-82
2022/07/23 01:13:42;;;;;;;29.10;20.02;;;;;;;17.37;62.77;98785.44;4988893;28;20047;-81
2022/07/23 01:16:08;;;;;;;27.23;21.80;;;;;;;17.41;62.73;98794.88;4940607;28;20057;-81
2022/07/23 01:18:34;;;;;;;23.95;21.50;;;;;;;17.30;63.44;98797.97;4988986;28;20541;-81
2022/07/23 01:21:00;;;;;;;39.35;35.65;;;;;;;17.22;63.05;98793.47;4988944;28;20082;-81
2022/07/23 01:23:26;;;;;;;37.33;33.10;;;;;;;17.28;63.04;98798.16;4988543;28;20078;-81
2022/07/23 01:25:55;;;;;;;;;;;;;;;17.37;62.75;98802.47;4972516;28;20129;-80
2022/07/23 01:28:22;;;;;;;32.10;29.02;;;;;;;17.23;63.10;98796.00;4972872;28;19922;-81
2022/07/23 01:30:49;;;;;;;48.00;43.28;;;;;;;17.16;63.43;98805.00;4972446;28;20505;-80
2022/07/23 01:33:15;;;;;;;52.50;47.22;;;;;;;17.24;62.69;98805.78;4988370;28;20042;-81
2022/07/23 01:35:41;;;;;;;58.50;53.05;;;;;;;17.33;62.53;98811.97;4972659;28;20469;-81
2022/07/23 01:38:08;;;;;;;56.90;51.28;;;;;;;17.35;62.58;98806.41;4972435;28;20055;-82
2022/07/23 01:40:35;;;;;;;47.78;43.60;;;;;;;17.49;62.11;98805.63;4972697;28;20607;-82
2022/07/23 01:43:01;;;;;;;41.50;37.40;;;;;;;17.63;61.75;98807.53;4975997;28;20138;-83
2022/07/23 01:45:29;;;;;;;26.52;23.88;;;;;;;17.71;61.29;98810.19;4977404;28;20074;-81
2022/07/23 01:47:55;;;;;;;27.80;23.10;;;;;;;17.74;60.79;98806.25;4959700;28;20457;-82
2022/07/23 01:50:21;;;;;;;27.63;24.75;;;;;;;17.76;60.56;98811.53;4992544;28;20078;-83
2022/07/23 01:53:07;;;;;;;26.10;23.33;;;;;;;17.75;60.59;98810.69;4962260;28;20050;-82
2022/07/23 01:55:35;;;;;;;26.93;22.47;;;;;;;17.75;60.41;98807.09;4975458;28;20520;-82
2022/07/23 01:58:01;;;;;;;25.67;23.13;;;;;;;17.62;60.77;98805.84;4991861;28;20099;-83
2022/07/23 02:00:29;;;;;;;30.35;27.23;;;;;;;17.53;60.57;98811.53;4960500;28;20050;-82
2022/07/23 02:02:54;;;;;;;22.35;19.83;;;;;;;17.41;61.16;98808.38;4991923;28;20046;-80
2022/07/23 02:05:21;;;;;;;20.10;18.20;;;;;;;17.26;61.35;98807.47;4975559;28;20537;-80
2022/07/23 02:07:47;;;;;;;23.95;21.45;;;;;;;17.34;61.37;98813.69;4977525;28;20042;-80
2022/07/23 02:10:13;;;;;;;18.38;16.42;;;;;;;17.28;61.72;98814.38;4992041;28;20556;-80
2022/07/23 02:12:39;;;;;;;16.15;12.70;;;;;;;17.14;62.20;98815.97;4991395;28;20061;-80
2022/07/23 02:15:25;;;;;;;17.20;12.75;;;;;;;17.15;61.94;98814.97;4976670;28;20050;-81
2022/07/23 02:17:51;;;;;;;16.35;13.90;;;;;;;17.22;61.49;98815.09;4991315;28;20066;-83
2022/07/23 02:20:16;;;;;;;16.38;14.80;;;;;;;17.19;61.35;98801.97;4975408;28;20042;-81
2022/07/23 02:22:43;;;;;;;15.52;13.93;;;;;;;17.28;61.26;98818.94;4991568;28;20134;-82
2022/07/23 02:25:09;;;;;;;14.00;9.50;;;;;;;17.35;61.33;98814.50;4974591;28;20562;-82
2022/07/23 02:27:36;;;;;;;18.60;10.27;;;;;;;17.30;61.40;98806.09;4991629;28;20065;-81
2022/07/23 02:30:06;;;;;;;11.88;9.50;;;;;;;17.41;61.30;98814.66;4958949;28;20050;-81
2022/07/23 02:32:33;;;;;;;16.20;8.68;;;;;;;17.54;60.81;98824.00;4975572;28;20118;-82
2022/07/23 02:35:00;;;;;;;18.13;6.70;;;;;;;17.54;60.60;98807.78;4974921;28;20073;-81
2022/07/23 02:37:25;;;;;;;16.05;7.45;;;;;;;17.55;60.62;98821.13;4991112;28;20051;-83
2022/07/23 02:39:51;;;;;;;12.55;7.38;;;;;;;17.60;60.73;98810.63;4958643;28;20053;-81
2022/07/23 02:42:17;;;;;;;10.80;5.65;;;;;;;17.69;60.54;98812.22;4974958;28;20066;-79
2022/07/23 02:44:43;;;;;;;10.13;6.10;;;;;;;17.84;60.14;98815.00;4958884;28;20074;-82
2022/07/23 02:47:09;;;;;;;9.55;5.72;;;;;;;18.02;60.30;98811.16;4991039;28;20417;-80
2022/07/23 02:49:35;;;;;;;20.02;7.18;;;;;;;18.17;59.85;98815.56;4990993;28;20585;-78
2022/07/23 02:52:04;;;;;;;15.15;7.30;;;;;;;18.32;59.42;98812.03;4958368;28;20046;-79
2022/07/23 02:54:29;;;;;;;12.05;7.30;;;;;;;18.46;59.12;98816.59;4974308;28;20101;-80
2022/07/23 02:56:56;;;;;;;20.88;8.82;;;;;;;18.45;59.34;98817.63;4975905;28;20051;-83
2022/07/23 02:59:21;;;;;;;29.52;8.63;;;;;;;18.57;59.34;98810.72;4959050;28;20512;-84
2022/07/23 03:01:47;;;;;;;24.20;8.25;;;;;;;18.61;59.10;98805.75;4975001;28;20046;-82
2022/07/23 03:04:13;;;;;;;19.95;6.40;;;;;;;18.71;58.49;98817.19;4990679;28;20081;-80
2022/07/23 03:06:41;;;;;;;22.77;7.73;;;;;;;18.84;58.76;98822.78;4990575;28;20054;-83
2022/07/23 03:09:07;;;;;;;16.45;8.18;;;;;;;18.92;58.60;98824.56;4974948;28;20301;-81
2022/07/23 03:11:33;;;;;;;18.63;9.00;;;;;;;19.07;58.96;98822.66;4974296;28;20162;-81
2022/07/23 03:13:59;;;;;;;16.35;9.57;;;;;;;19.16;58.40;98820.66;4990814;28;20054;-82
2022/07/23 03:16:25;;;;;;;22.25;9.30;;;;;;;19.22;58.61;98822.63;4974370;28;20043;-78
2022/07/23 03:18:50;;;;;;;15.45;8.98;;;;;;;19.23;58.71;98809.91;4975590;28;20038;-82
2022/07/23 03:21:17;;;;;;;15.85;8.98;;;;;;;19.45;58.71;98825.16;4991108;28;20051;-86
2022/07/23 03:23:43;;;;;;;25.77;10.48;;;;;;;19.68;57.98;98821.47;4977014;28;20050;-86
2022/07/23 03:26:09;;;;;;;20.73;11.32;;;;;;;19.76;57.51;98824.03;4974164;28;20498;-80
2022/07/23 03:28:35;;;;;;;17.38;9.15;;;;;;;20.02;57.13;98827.00;4974961;28;20045;-84
2022/07/23 03:31:01;;;;;;;28.23;7.90;;;;;;;20.19;55.97;98822.09;4974415;28;20418;-85
2022/07/23 03:33:27;;;;;;;7.43;6.07;;;;;;;20.40;56.04;98829.38;4989975;28;20494;-83
2022/07/23 03:35:53;;;;;;;11.48;5.10;;;;;;;20.61;55.22;98825.75;4959853;28;20056;-85
2022/07/23 03:38:25;;;;;;;9.43;4.38;;;;;;;20.80;54.99;98822.34;4977082;28;20118;-82
2022/07/23 03:40:51;;;;;;;11.93;3.95;;;;;;;21.01;54.14;98815.09;4991185;28;20055;-82
2022/07/23 03:43:17;;;;;;;12.35;3.88;;;;;;;21.17;53.98;98819.34;4960158;28;20046;-83
2022/07/23 03:45:44;;;;;;;12.43;3.83;;;;;;;21.37;53.62;98822.16;4981120;28;20097;-82
2022/07/23 03:48:10;;;;;;;11.60;3.85;;;;;;;21.44;53.52;98815.69;4991643;28;20050;-81
2022/07/23 03:50:37;;;;;;;16.17;3.88;;;;;;;21.49;52.99;98813.19;4973487;28;20045;-80
2022/07/23 03:53:03;;;;;;;9.80;3.92;;;;;;;21.53;53.06;98819.91;4974728;28;20093;-80
2022/07/23 03:55:31;;;;;;;19.45;3.65;;;;;;;21.46;53.20;98813.59;4976818;28;20556;-81
2022/07/23 03:57:57;;;;;;;10.07;3.25;;;;;;;21.41;53.38;98810.66;4959481;28;20035;-80
2022/07/23 04:00:23;;;;;;;10.35;3.25;;;;;;;21.56;53.67;98819.50;4973984;28;20114;-80
2022/07/23 04:02:50;;;;;;;15.10;3.63;;;;;;;21.64;53.61;98809.47;4976752;28;20054;-87
2022/07/23 04:05:17;;;;;;;9.52;3.38;;;;;;;21.85;53.26;98827.47;4974711;28;20102;-79
2022/07/23 04:07:48;;;;;;;6.20;2.72;;;;;;;21.67;53.09;98817.22;4989788;28;20100;-79
2022/07/23 04:10:20;;;;;;;5.90;3.15;;;;;;;21.83;52.75;98824.97;4973441;28;20486;-79
2022/07/23 04:12:49;;;;;;;10.70;2.55;;;;;;;21.90;52.02;98823.09;4989150;28;20105;-78
2022/07/23 04:15:15;;;;;;;13.75;2.90;;;;;;;21.87;51.99;98812.63;4976453;28;20067;-80
2022/07/23 04:17:41;;;;;;;9.38;3.20;;;;;;;22.08;51.59;98806.13;4958858;28;20080;-79
2022/07/23 04:20:07;;;;;;;11.02;2.75;;;;;;;22.18;50.56;98801.13;4960785;28;20564;-77
2022/07/23 04:22:39;;;;;;;11.20;3.13;;;;;;;22.33;50.46;98813.69;4975635;28;20066;-78
2022/07/23 04:25:05;;;;;;;8.90;3.30;;;;;;;22.45;50.32;98809.25;4990438;28;20097;-77
2022/07/23 04:27:33;;;;;;;10.45;3.65;;;;;;;22.54;49.68;98800.66;4941081;28;20510;-78
2022/07/23 04:29:59;;;;;;;16.98;3.78;;;;;;;22.70;49.90;98804.81;4972976;28;20039;-78
2022/07/23 04:32:25;;;;;;;9.60;3.90;;;;;;;22.81;49.26;98795.13;4972687;28;20169;-76
2022/07/23 04:34:51;;;;;;;8.43;3.40;;;;;;;22.99;49.02;98806.22;4973398;28;20046;-78
2022/07/23 04:37:17;;;;;;;6.57;3.20;;;;;;;23.16;48.31;98798.34;4973057;28;20047;-75
2022/07/23 04:39:44;;;;;;;9.93;3.33;;;;;;;23.13;47.92;98803.41;4972589;28;20387;-76
2022/07/23 04:42:11;;;;;;;9.88;3.75;;;;;;;23.25;48.01;98801.69;4956671;28;20524;-75
2022/07/23 04:44:37;;;;;;;11.88;3.92;;;;;;;23.36;46.11;98809.19;4956572;28;20042;-77
2022/07/23 04:47:04;;;;;;;10.18;3.85;;;;;;;23.34;46.65;98805.00;4956918;28;20630;-77
2022/07/23 04:49:30;;;;;;;18.60;3.60;;;;;;;23.45;46.74;98801.56;4988896;28;20047;-77
2022/07/23 04:51:56;;;;;;;12.43;4.25;;;;;;;23.43;46.64;98801.81;4956762;28;20047;-76
2022/07/23 04:54:22;;;;;;;11.77;4.72;;;;;;;23.69;46.83;98802.69;4968378;28;20043;-77
2022/07/23 04:56:48;;;;;;;9.52;4.50;;;;;;;23.87;45.96;98808.22;4985314;28;20409;-78
2022/07/23 04:59:13;;;;;;;10.57;4.45;;;;;;;23.94;45.96;98795.38;4972296;28;20479;-77
2022/07/23 05:01:41;;;;;;;12.07;4.68;;;;;;;24.14;45.81;98800.66;4956291;28;20070;-78
2022/07/23 05:04:07;;;;;;;6.80;4.80;;;;;;;24.36;45.61;98801.09;4973668;28;20498;-76
2022/07/23 05:06:36;;;;;;;7.07;5.32;;;;;;;24.30;43.39;98788.34;4974671;28;20050;-78
2022/07/23 05:09:02;;;;;;;7.78;4.85;;;;;;;24.17;43.43;98799.38;4972723;28;20051;-78
2022/07/23 05:11:29;;;;;;;14.35;5.10;;;;;;;24.19;43.82;98798.09;4972348;28;20453;-77
2022/07/23 05:13:55;;;;;;;8.50;4.95;;;;;;;24.41;44.25;98806.75;4972519;28;20490;-78
2022/07/23 05:16:22;;;;;;;14.18;6.03;;;;;;;24.46;43.75;98795.97;4975473;28;20508;-77
2022/07/23 05:18:48;;;;;;;7.57;4.97;;;;;;;24.64;43.80;98794.34;4976351;28;20677;-76
2022/07/23 05:21:14;;;;;;;8.77;5.15;;;;;;;24.85;43.80;98796.59;4976450;28;20047;-79
2022/07/23 05:23:40;;;;;;;6.95;4.50;;;;;;;25.06;42.63;98791.72;4976342;28;20061;-78
2022/07/23 05:26:06;;;;;;;12.02;4.57;;;;;;;25.30;42.35;98787.22;4959846;28;20059;-84
2022/07/23 05:28:32;;;;;;;9.93;4.82;;;;;;;25.30;41.54;98789.97;4976017;28;20138;-82
2022/07/23 05:30:58;;;;;;;8.75;4.80;;;;;;;25.28;41.52;98801.16;4957362;28;20129;-78
2022/07/23 05:33:24;;;;;;;9.20;4.53;;;;;;;25.30;42.25;98793.53;4991801;28;20046;-78
2022/07/23 05:35:51;;;;;;;11.15;4.53;;;;;;;25.47;42.49;98792.91;4975406;28;20394;-79
2022/07/23 05:38:27;;;;;;;6.28;4.65;;;;;;;25.58;41.57;98790.19;4975743;28;20352;-78
2022/07/23 05:40:55;;;;;;;7.97;4.20;;;;;;;25.58;41.29;98783.88;4991007;28;20039;-79
2022/07/23 05:43:21;;;;;;;7.45;3.75;;;;;;;25.42;40.99;98797.13;4991936;28;20042;-78
2022/07/23 05:45:47;;;;;;;5.30;3.17;;;;;;;25.39;40.40;98785.84;4991506;28;20055;-81
2022/07/23 05:48:13;;;;;;;7.35;2.97;;;;;;;25.54;40.06;98783.53;4991669;28;20081;-80
2022/07/23 05:50:49;;;;;;;6.80;2.60;;;;;;;25.80;38.93;98792.41;4991685;28;20047;-80
2022/07/23 05:53:28;;;;;;;7.57;3.17;;;;;;;25.78;39.57;98778.97;4958938;28;20145;-79
2022/07/23 05:56:00;;;;;;;5.85;3.20;;;;;;;26.04;39.62;98793.28;4959000;28;20054;-78
2022/07/23 05:58:25;;;;;;;7.20;3.30;;;;;;;26.09;39.75;98790.66;4959064;28;20045;-79
2022/07/23 06:00:51;;;;;;;7.90;3.20;;;;;;;26.16;40.17;98785.91;4975544;28;20051;-78
2022/07/23 06:03:18;;;;;;;12.70;3.70;;;;;;;26.27;39.36;98782.34;4958903;28;20190;-79
2022/07/23 06:05:43;;;;;;;7.10;3.90;;;;;;;26.49;38.62;98785.34;4974516;28;20042;-79
2022/07/23 06:08:09;;;;;;;7.88;3.25;;;;;;;26.47;38.58;98781.19;4942478;28;20074;-78
2022/07/23 06:10:35;;;;;;;4.53;2.50;;;;;;;26.39;37.57;98777.69;4974446;28;20042;-79
2022/07/23 06:13:02;;;;;;;11.70;3.13;;;;;;;26.39;37.86;98779.59;4974924;28;20047;-80
2022/07/23 06:15:28;;;;;;;5.95;2.28;;;;;;;26.27;36.96;98782.34;4974294;28;20050;-80
2022/07/23 06:17:54;;;;;;;12.77;2.22;;;;;;;26.11;37.48;98778.41;4975297;28;20501;-83
2022/07/23 06:20:20;;;;;;;3.55;2.00;;;;;;;26.40;37.75;98787.59;4974551;28;20133;-79
2022/07/23 06:22:45;;;;;;;9.23;2.30;;;;;;;26.75;37.05;98778.53;4974330;28;20043;-79
2022/07/23 06:25:11;;;;;;;9.77;2.65;;;;;;;26.80;36.37;98775.88;4990061;28;20054;-79
2022/07/23 06:27:37;;;;;;;6.47;2.00;;;;;;;26.78;35.93;98778.06;4973771;28;20533;-78
2022/07/23 06:30:03;;;;;;;9.93;2.33;;;;;;;26.78;36.17;98777.19;4975830;28;20043;-78
2022/07/23 06:32:29;;;;;;;10.27;1.95;;;;;;;26.75;36.55;98773.03;4975748;28;20046;-78
2022/07/23 06:34:55;;;;;;;14.02;2.80;;;;;;;26.64;36.69;98776.63;4975781;28;20391;-78
2022/07/23 06:37:22;;;;;;;7.57;2.47;;;;;;;26.61;36.84;98760.66;4974486;28;20051;-78
2022/07/23 06:39:47;;;;;;;5.75;2.20;;;;;;;26.84;36.29;98759.78;4990473;28;20047;-78
2022/07/23 06:42:14;;;;;;;7.32;2.10;;;;;;;26.84;36.59;98766.09;4973757;28;20050;-78
2022/07/23 06:44:44;;;;;;;6.65;2.30;;;;;;;26.83;37.08;98758.13;4943631;28;20039;-78
2022/07/23 06:47:10;;;;;;;14.35;2.58;;;;;;;27.06;37.35;98765.44;4974571;28;20043;-80
2022/07/23 06:49:36;;;;;;;9.23;1.80;;;;;;;27.22;36.36;98759.19;4974070;28;20530;-79
2022/07/23 06:52:02;;;;;;;4.18;1.70;;;;;;;27.19;36.21;98750.63;4957938;28;20061;-80
2022/07/23 06:54:28;;;;;;;9.98;1.70;;;;;;;27.35;35.90;98758.09;4974684;28;20125;-79
2022/07/23 06:56:54;;;;;;;4.63;1.48;;;;;;;27.54;35.21;98750.47;4975234;28;20455;-80
2022/07/23 06:59:20;;;;;;;5.35;1.52;;;;;;;27.67;34.50;98761.13;4974360;28;20053;-79
2022/07/23 07:01:45;;;;;;;8.00;1.58;;;;;;;27.63;34.30;98762.69;4973718;28;20045;-79
2022/07/23 07:04:11;;;;;;;8.50;1.60;;;;;;;27.23;34.19;98752.66;4975302;28;20061;-80
2022/07/23 07:06:37;;;;;;;7.55;1.80;;;;;;;27.27;35.16;98755.72;4975259;28;20047;-80
2022/07/23 07:09:03;;;;;;;13.35;1.85;;;;;;;27.31;35.27;98760.50;4973255;28;20034;-80
2022/07/23 07:11:29;;;;;;;11.05;1.90;;;;;;;27.49;35.13;98750.34;4971309;28;20051;-78
2022/07/23 07:13:54;;;;;;;6.07;1.90;;;;;;;27.80;35.07;98755.34;4963628;28;20112;-77
2022/07/23 07:16:20;;;;;;;4.88;1.50;;;;;;;27.94;33.47;98760.50;4964722;28;20074;-79
2022/07/23 07:18:46;;;;;;;4.30;1.40;;;;;;;27.56;34.09;98753.78;4970648;28;20074;-79
2022/07/23 07:21:12;;;;;;;8.40;1.83;;;;;;;27.61;34.57;98759.38;4955420;29;20094;-78
2022/07/23 07:23:38;;;;;;;7.90;1.60;;;;;;;27.50;35.01;98744.63;4938017;29;20570;-79
2022/07/23 07:26:04;;;;;;;4.20;1.50;;;;;;;27.90;35.13;98751.09;4954728;29;20066;-80
2022/07/23 07:28:30;;;;;;;8.50;1.58;;;;;;;28.21;34.15;98760.66;4955660;28;20066;-79
2022/07/23 07:30:55;;;;;;;6.78;1.70;;;;;;;28.32;34.06;98762.47;4954342;29;20089;-78
2022/07/23 07:33:21;;;;;;;4.85;1.75;;;;;;;28.18;34.25;98747.44;4937995;29;20043;-80
2022/07/23 07:35:47;;;;;;;4.38;1.70;;;;;;;28.30;34.45;98750.91;4955288;29;20047;-86
2022/07/23 07:38:13;;;;;;;2.17;1.50;;;;;;;28.50;34.38;98755.88;4938599;28;20133;-82
2022/07/23 07:40:39;;;;;;;8.95;1.80;;;;;;;28.54;33.24;98746.03;4973405;28;20133;-81
2022/07/23 07:43:05;;;;;;;6.40;1.55;;;;;;;28.36;32.64;98749.03;4957538;28;20453;-82
2022/07/23 07:45:32;;;;;;;7.13;1.58;;;;;;;27.94;33.53;98763.25;4989865;28;20046;-80
2022/07/23 07:47:58;;;;;;;6.28;1.40;;;;;;;27.97;34.02;98757.25;4973591;28;20047;-81
2022/07/23 07:50:24;;;;;;;10.30;1.70;;;;;;;28.08;33.64;98753.59;4973889;28;20077;-81
2022/07/23 07:52:50;;;;;;;4.22;1.33;;;;;;;28.42;32.84;98739.84;4973364;28;20069;-80
2022/07/23 07:55:16;;;;;;;7.22;1.77;;;;;;;28.71;31.99;98757.84;4989362;28;20523;-80
2022/07/23 07:57:42;;;;;;;4.28;1.52;;;;;;;28.56;32.70;98755.72;4989464;28;20050;-81
2022/07/23 08:00:10;;;;;;;7.70;1.50;;;;;;;28.29;33.09;98755.56;4974736;28;20043;-80
2022/07/23 08:02:50;;;;;;;9.93;1.75;;;;;;;28.48;33.17;98741.56;4990199;28;20141;-81
2022/07/23 08:05:24;;;;;;;10.07;1.52;;;;;;;28.60;32.05;98738.72;4957712;28;20038;-80
2022/07/23 08:07:50;;;;;;;2.55;1.48;;;;;;;28.78;32.25;98733.72;4957361;28;20070;-80
2022/07/23 08:10:17;;;;;;;7.05;1.65;;;;;;;29.00;31.76;98727.41;4973627;28;20494;-80
2022/07/23 08:12:51;;;;;;;7.95;1.50;;;;;;;29.12;31.53;98736.34;4974406;28;20046;-81
2022/07/23 08:15:20;;;;;;;5.43;1.67;;;;;;;29.08;31.72;98726.97;4957239;28;20050;-82
2022/07/23 08:17:46;;;;;;;4.55;1.70;;;;;;;29.29;31.84;98725.22;4974143;28;20201;-81
2022/07/23 08:20:14;;;;;;;11.88;1.98;;;;;;;29.35;31.77;98731.63;4957036;28;20177;-81
2022/07/23 08:22:44;;;;;;;8.70;1.85;;;;;;;29.64;31.66;98733.06;4989426;28;20051;-82
2022/07/23 08:25:10;;;;;;;6.30;1.80;;;;;;;29.92;31.08;98723.63;4972863;28;20505;-81
2022/07/23 08:27:36;;;;;;;14.30;2.13;;;;;;;30.29;30.93;98735.78;4940826;28;20050;-81
2022/07/23 08:30:03;;;;;;;7.30;1.88;;;;;;;30.39;29.39;98731.16;4973743;28;20092;-81
2022/07/23 08:32:29;;;;;;;5.47;1.75;;;;;;;30.33;29.60;98728.63;4971993;28;20050;-81
2022/07/23 08:34:55;;;;;;;7.05;1.50;;;;;;;30.33;30.46;98734.16;4971995;28;20043;-80
2022/07/23 08:37:21;;;;;;;1.98;1.25;;;;;;;30.21;30.51;98726.91;4988824;28;20125;-80
2022/07/23 08:39:47;;;;;;;3.20;1.80;;;;;;;30.36;30.36;98728.09;4972236;28;20185;-82
2022/07/23 08:42:14;;;;;;;10.30;1.70;;;;;;;29.87;30.17;98723.59;4972394;28;20429;-83
2022/07/23 08:44:46;;;;;;;9.52;1.98;;;;;;;29.63;30.62;98725.88;4989823;28;20043;-81
2022/07/23 08:47:15;;;;;;;16.73;1.90;;;;;;;29.59;30.17;98713.72;4956920;28;20053;-83
2022/07/23 08:49:45;;;;;;;7.30;1.58;;;;;;;29.66;30.33;98730.84;4975702;28;20500;-82
2022/07/23 08:52:11;;;;;;;7.53;1.80;;;;;;;29.86;29.81;98723.84;4995482;28;20556;-82
2022/07/23 08:54:37;;;;;;;4.75;1.50;;;;;;;30.44;29.13;98735.88;4979061;28;20046;-81
2022/07/23 08:57:03;;;;;;;4.82;1.60;;;;;;;30.72;29.07;98724.41;4979078;28;20050;-80
2022/07/23 08:59:29;;;;;;;7.22;1.95;;;;;;;31.22;28.69;98735.94;4979092;28;20039;-81
2022/07/23 09:01:55;;;;;;;7.13;1.95;;;;;;;31.46;27.84;98733.53;4962979;28;20521;-81
2022/07/23 09:04:20;;;;;;;7.13;1.83;;;;;;;31.72;27.94;98734.38;4995304;28;20050;-81
2022/07/23 09:06:46;;;;;;;6.15;1.77;;;;;;;31.30;28.07;98726.31;4963017;28;20069;-82
2022/07/23 09:09:20;;;;;;;7.32;1.70;;;;;;;30.89;28.47;98726.19;4979029;28;20046;-81
2022/07/23 09:11:47;;;;;;;10.15;1.95;;;;;;;30.73;28.03;98722.50;4979078;28;20540;-81
2022/07/23 09:14:13;;;;;;;9.55;1.88;;;;;;;31.00;28.03;98713.25;4979129;28;20078;-80
2022/07/23 09:16:39;;;;;;;9.57;1.88;;;;;;;31.15;28.05;98725.16;4978759;28;20070;-82
2022/07/23 09:19:07;;;;;;;4.40;1.60;;;;;;;31.41;27.23;98722.50;4978829;28;20047;-81
2022/07/23 09:21:37;;;;;;;8.37;1.70;;;;;;;31.68;27.37;98717.53;4995003;28;20043;-79
2022/07/23 09:24:16;;;;;;;5.72;1.73;;;;;;;31.77;26.61;98725.25;4962785;28;20278;-81
2022/07/23 09:26:47;;;;;;;12.85;2.10;;;;;;;31.78;26.32;98726.91;4978530;28;20521;-81
2022/07/23 09:29:33;;;;;;;6.78;1.90;;;;;;;31.71;27.01;98712.53;4978980;28;20536;-81
2022/07/23 09:32:02;;;;;;;14.90;2.13;;;;;;;31.89;27.17;98723.06;4978765;28;20121;-83
2022/07/23 09:34:30;;;;;;;8.98;1.90;;;;;;;32.10;26.11;98723.91;4962846;28;20046;-80
2022/07/23 09:37:13;;;;;;;7.85;2.10;;;;;;;31.19;26.71;98729.03;4962740;28;20050;-79
2022/07/23 09:39:40;;;;;;;3.70;1.90;;;;;;;31.24;27.49;98719.09;4979151;28;20042;-79
2022/07/23 09:42:21;;;;;;;6.72;1.98;;;;;;;31.59;27.01;98719.16;4962732;28;20051;-81
2022/07/23 09:44:49;;;;;;;5.82;1.85;;;;;;;31.87;26.09;98703.19;4995147;28;20051;-81
2022/07/23 09:47:16;;;;;;;8.15;2.22;;;;;;;31.50;26.58;98709.78;4978687;28;20052;-79
2022/07/23 09:50:01;;;;;;;3.47;1.92;;;;;;;31.71;27.06;98715.31;4963025;28;20054;-80
2022/07/23 09:52:30;;;;;;;4.70;1.88;;;;;;;32.23;26.26;98697.59;4994212;28;20046;-80
2022/07/23 09:55:01;;;;;;;17.02;2.17;;;;;;;32.85;25.69;98701.84;4962287;28;20047;-80
2022/07/23 09:57:28;;;;;;;26.75;2.47;;;;;;;32.88;25.17;98709.59;4978784;28;20039;-83
2022/07/23 09:59:59;;;;;;;9.45;2.08;;;;;;;32.31;25.82;98713.59;4962763;28;20049;-82
2022/07/23 10:02:27;;;;;;;4.50;2.20;;;;;;;32.98;25.40;98712.31;4992205;28;20054;-79
2022/07/23 10:05:12;;;;;;;5.93;1.65;;;;;;;33.10;24.49;98704.53;4976799;28;20457;-85
2022/07/23 10:07:59;;;;;;;2.92;1.70;;;;;;;32.95;24.36;98701.84;4975987;28;20050;-83
2022/07/23 10:10:46;;;;;;;6.83;1.73;;;;;;;32.89;23.89;98702.94;4990056;28;20054;-91
2022/07/23 10:13:50;;;;;;;5.47;1.90;;;;;;;32.82;23.51;98694.09;4975211;28;20084;-80
2022/07/23 10:16:16;;;;;;;3.78;1.80;;;;;;;33.23;22.78;98685.59;4944270;28;20094;-87
2022/07/23 10:18:42;;;;;;;5.60;2.00;;;;;;;33.14;23.00;98693.69;4959414;28;20474;-80
2022/07/23 10:21:09;;;;;;;5.88;1.60;;;;;;;33.70;23.43;98698.00;4976121;28;20561;-85
2022/07/23 10:23:48;;;;;;;6.72;1.63;;;;;;;33.98;23.20;98705.56;4974781;28;20089;-78
2022/07/23 10:26:28;;;;;;;9.35;2.08;;;;;;;34.37;22.96;98699.06;4976325;28;20508;-80
2022/07/23 10:29:10;;;;;;;6.15;1.80;;;;;;;34.90;22.99;98696.22;4975483;28;20046;-80
2022/07/23 10:31:54;;;;;;;5.82;1.88;;;;;;;34.81;22.68;98695.22;4975667;28;20042;-81
2022/07/23 10:34:41;;;;;;;9.95;2.42;;;;;;;34.63;22.62;98696.03;4959111;28;20109;-78
2022/07/23 10:37:26;;;;;;;3.50;1.80;;;;;;;34.26;22.69;98692.78;4974864;28;20046;-79
2022/07/23 10:40:13;;;;;;;8.85;2.08;;;;;;;33.89;22.60;98693.44;4975043;28;20057;-81
2022/07/23 10:42:40;;;;;;;1.70;1.60;;;;;;;34.12;23.04;98691.03;4974761;28;20121;-79
2022/07/23 10:45:27;;;;;;;3.22;1.67;;;;;;;34.96;22.36;98685.88;4958761;28;20510;-80
2022/07/23 10:47:54;;;;;;;6.57;1.90;;;;;;;35.31;22.16;98692.88;4975298;28;20089;-82
2022/07/23 10:50:22;;;;;;;5.63;1.80;;;;;;;35.70;21.45;98686.19;4958832;28;20039;-81
2022/07/23 10:53:09;;;;;;;;;;;;;;;35.86;20.71;98687.59;4991378;28;20054;-81
2022/07/23 10:55:35;;;;;;;6.28;1.83;;;;;;;35.83;20.55;98685.41;4990737;28;20245;-82
2022/07/23 10:58:03;;;;;;;4.60;1.67;;;;;;;35.89;20.75;98689.75;4974243;28;20039;-79
2022/07/23 11:00:31;;;;;;;17.15;2.10;;;;;;;35.39;21.22;98692.19;4975532;28;20047;-79
2022/07/23 11:03:01;;;;;;;;;;;;;;;35.12;21.26;98700.41;4974800;28;20050;-77
2022/07/23 11:05:45;;;;;;;7.10;1.75;;;;;;;35.39;22.12;98708.06;4990069;28;20312;-80
2022/07/23 11:08:16;;;;;;;5.88;1.70;;;;;;;35.72;21.95;98695.06;4973480;28;20164;-80
2022/07/23 11:10:49;;;;;;;10.63;1.70;;;;;;;36.01;21.63;98691.25;4974766;28;20045;-81
2022/07/23 11:13:24;;;;;;;4.40;1.80;;;;;;;36.20;20.53;98690.03;4958388;28;20049;-80
2022/07/23 11:16:04;;;;;;;5.65;2.00;;;;;;;36.27;20.59;98667.38;4974323;28;20105;-79
2022/07/23 11:18:39;;;;;;;4.28;1.90;;;;;;;36.14;21.03;98679.31;4958043;28;20042;-79
2022/07/23 11:21:23;;;;;;;9.07;1.90;;;;;;;36.51;20.05;98678.34;4973899;28;20146;-78
2022/07/23 11:24:07;;;;;;;9.90;1.95;;;;;;;36.67;19.92;98664.91;4973983;28;20121;-80
2022/07/23 11:26:45;;;;;;;5.97;1.70;;;;;;;36.20;20.54;98684.47;4974852;28;20158;-78
2022/07/23 11:29:26;;;;;;;3.22;1.67;;;;;;;36.07;20.36;98678.88;4957705;28;20177;-80
2022/07/23 11:32:19;;;;;;;2.22;1.40;;;;;;;36.20;20.35;98678.09;4973716;28;20050;-80
2022/07/23 11:34:47;;;;;;;6.55;2.05;;;;;;;35.76;20.82;98673.84;4975792;28;20058;-79